Time;durP1;ratioP1;P1;durP2;ratioP2;P2;SDS_P1;SDS_P2;PMS_P1;PMS_P2;Temp;Humidity;BMP_temperature;BMP_pressure;BME280_temperature;BME280_humidity;BME280_pressure;Samples;Min_cycle;Max_cycle;Signal;HPM_P1;HPM_P2
2022/06/11 00:00:07;;;;;;;;;;;;;;;;;;341664;28;1702;-77
2022/06/11 00:00:18;;;;;;;;;;;;;;;;;;342455;28;1305;-77
2022/06/11 00:00:28;;;;;;;;;;;;;;;;;;343355;28;767;-77
2022/06/11 00:00:39;;;;;;;;;;;;;;;;;;343290;28;1282;-77
2022/06/11 00:00:49;;;;;;;;;;;;;;;;;;343290;28;772;-76
2022/06/11 00:00:59;;;;;;;;;;;;;;;;;;343334;28;918;-77
2022/06/11 00:01:12;;;;;;;;;;;;;;;;;;343277;28;990;-79
2022/06/11 00:01:24;;;;;;;;;;;;;;;;;;343321;28;848;-77
2022/06/11 00:01:40;;;;;;;;;;;;;;;;;;343352;28;918;-77
2022/06/11 00:01:52;;;;;;;;;;;;;;;;;;343315;28;894;-78
2022/06/11 00:02:04;;;;;;;;;;;;;;;;;;343277;28;1175;-77
2022/06/11 00:02:14;;;;;;;;;;;;;;;;;;343267;28;945;-77
2022/06/11 00:02:24;;;;;;;;;;;;;;;;;;343343;28;909;-77
2022/06/11 00:02:34;;;;;;;;;;;;;;;;;;343326;28;1012;-77
2022/06/11 00:02:45;;;;;;;;;;;;;;;;;;343298;28;913;-77
2022/06/11 00:02:56;;;;;;;;;;;;;;;;;;343329;28;771;-77
2022/06/11 00:03:06;;;;;;;;;;;;;;;;;;343316;28;933;-77
2022/06/11 00:03:16;;;;;;;;;;;;;;;;;;343305;28;803;-77
2022/06/11 00:03:26;;;;;;;;;;;;;;;;;;343350;28;837;-78
2022/06/11 00:03:36;;;;;;;;;;;;;;;;;;343304;28;894;-77
2022/06/11 00:03:48;;;;;;;;;;;;;;;;;;343352;28;805;-76
2022/06/11 00:04:02;;;;;;;;;;;;;;;;;;343357;28;992;-77
2022/06/11 00:04:14;;;;;;;;;;;;;;;;;;343286;28;881;-77
2022/06/11 00:04:27;;;;;;;;;;;;;;;;;;343337;28;846;-76
2022/06/11 00:04:42;;;;;;;;;;;;;;;;;;342988;28;1519;-77
2022/06/11 00:04:52;;;;;;;;;;;;;;;;;;343339;28;890;-77
2022/06/11 00:05:02;;;;;;;;;;;;;;;;;;343284;28;984;-77
2022/06/11 00:05:13;;;;;;;;;;;;;;;;;;343294;28;862;-77
2022/06/11 00:05:23;;;;;;;;;;;;;;;;;;343368;28;933;-77
2022/06/11 00:05:33;;;;;;;;;;;;;;;;;;343226;28;1020;-78
2022/06/11 00:05:43;;;;;;;;;;;;;;;;;;343314;28;956;-77
2022/06/11 00:05:53;;;;;;;;;;;;;;;;;;343318;28;942;-77
2022/06/11 00:06:04;;;;;;;;;;;;;;;;;;343281;28;957;-77
2022/06/11 00:06:14;;;;;;;;;;;;;;;;;;343380;28;862;-77
2022/06/11 00:06:25;;;;;;;;;;;;;;;;;;343330;28;993;-77
2022/06/11 00:06:38;;;;;;;;;;;;;;;;;;343286;28;949;-77
2022/06/11 00:06:50;;;;;;;;;;;;;;;;;;343323;28;977;-77
2022/06/11 00:07:04;;;;;;;;;;;;;;;;;;343336;28;859;-77
2022/06/11 00:07:16;;;;;;;;;;;;;;;;;;343230;28;1032;-77
2022/06/11 00:07:26;;;;;;;;;;;;;;;;;;343013;28;1432;-77
2022/06/11 00:07:37;;;;;;;;;;;;;;;;;;343241;28;1542;-77
2022/06/11 00:07:47;;;;;;;;;;;;;;;;;;343217;28;981;-77
2022/06/11 00:07:57;;;;;;;;;;;;;;;;;;343337;28;918;-77
2022/06/11 00:08:08;;;;;;;;;;;;;;;;;;343294;28;1080;-77
2022/06/11 00:08:19;;;;;;;;;;;;;;;;;;343247;28;835;-77
2022/06/11 00:08:30;;;;;;;;;;;;;;;;;;343245;28;1018;-77
2022/06/11 00:08:40;;;;;;;;;;;;;;;;;;343316;28;763;-77
2022/06/11 00:08:51;;;;;;;;;;;;;;;;;;343251;28;890;-77
2022/06/11 00:09:01;;;;;;;;;;;;;;;;;;343309;28;977;-78
2022/06/11 00:09:12;;;;;;;;;;;;;;;;;;343368;28;846;-77
2022/06/11 00:09:23;;;;;;;;;;;;;;;;;;343228;28;1016;-77
2022/06/11 00:09:33;;;;;;;;;;;;;;;;;;343317;28;910;-77
2022/06/11 00:09:43;;;;;;;;;;;;;;;;;;343205;28;1906;-77
2022/06/11 00:09:53;;;;;;;;;;;;;;;;;;343271;28;785;-77
2022/06/11 00:10:05;;;;;;;;;;;;;;;;;;343265;28;942;-77
2022/06/11 00:10:15;;;;;;;;;;;;;;;;;;342325;28;1706;-77
2022/06/11 00:10:25;;;;;;;;;;;;;;;;;;343319;28;886;-77
2022/06/11 00:10:36;;;;;;;;;;;;;;;;;;343347;28;922;-77
2022/06/11 00:10:46;;;;;;;;;;;;;;;;;;343313;28;799;-77
2022/06/11 00:10:56;;;;;;;;;;;;;;;;;;343317;28;974;-77
2022/06/11 00:11:07;;;;;;;;;;;;;;;;;;343326;28;980;-77
2022/06/11 00:11:17;;;;;;;;;;;;;;;;;;343320;28;996;-77
2022/06/11 00:11:28;;;;;;;;;;;;;;;;;;343270;28;974;-77
2022/06/11 00:11:39;;;;;;;;;;;;;;;;;;343346;28;842;-77
2022/06/11 00:11:51;;;;;;;;;;;;;;;;;;343246;28;1013;-77
2022/06/11 00:12:02;;;;;;;;;;;;;;;;;;343247;28;941;-77
2022/06/11 00:12:13;;;;;;;;;;;;;;;;;;343300;28;926;-76
2022/06/11 00:12:24;;;;;;;;;;;;;;;;;;343331;28;791;-77
2022/06/11 00:12:35;;;;;;;;;;;;;;;;;;343315;28;937;-78
2022/06/11 00:12:45;;;;;;;;;;;;;;;;;;343348;28;878;-77
2022/06/11 00:12:56;;;;;;;;;;;;;;;;;;343288;28;925;-77
2022/06/11 00:13:06;;;;;;;;;;;;;;;;;;343323;28;929;-77
2022/06/11 00:13:16;;;;;;;;;;;;;;;;;;343348;28;933;-77
2022/06/11 00:13:27;;;;;;;;;;;;;;;;;;343299;28;934;-77
2022/06/11 00:13:37;;;;;;;;;;;;;;;;;;343315;28;913;-77
2022/06/11 00:13:47;;;;;;;;;;;;;;;;;;343295;28;971;-78
2022/06/11 00:13:58;;;;;;;;;;;;;;;;;;343255;28;1017;-77
2022/06/11 00:14:09;;;;;;;;;;;;;;;;;;343128;28;1165;-77
2022/06/11 00:14:21;;;;;;;;;;;;;;;;;;343233;28;1139;-77
2022/06/11 00:14:32;;;;;;;;;;;;;;;;;;343095;28;1013;-77
2022/06/11 00:14:43;;;;;;;;;;;;;;;;;;342351;28;2365;-77
2022/06/11 00:14:53;;;;;;;;;;;;;;;;;;342918;28;854;-77
2022/06/11 00:15:05;;;;;;;;;;;;;;;;;;343314;28;826;-77
2022/06/11 00:15:16;;;;;;;;;;;;;;;;;;343243;28;870;-77
2022/06/11 00:15:27;;;;;;;;;;;;;;;;;;343259;28;921;-77
2022/06/11 00:15:37;;;;;;;;;;;;;;;;;;343327;28;914;-77
2022/06/11 00:15:48;;;;;;;;;;;;;;;;;;343258;28;998;-77
2022/06/11 00:16:01;;;;;;;;;;;;;;;;;;342676;28;1658;-77
2022/06/11 00:16:12;;;;;;;;;;;;;;;;;;343233;28;913;-77
2022/06/11 00:16:24;;;;;;;;;;;;;;;;;;343347;28;771;-77
2022/06/11 00:16:34;;;;;;;;;;;;;;;;;;343040;28;969;-77
2022/06/11 00:16:44;;;;;;;;;;;;;;;;;;343335;28;926;-77
2022/06/11 00:16:55;;;;;;;;;;;;;;;;;;343282;28;909;-77
2022/06/11 00:17:07;;;;;;;;;;;;;;;;;;343265;28;876;-77
2022/06/11 00:17:18;;;;;;;;;;;;;;;;;;343237;28;1337;-77
2022/06/11 00:17:28;;;;;;;;;;;;;;;;;;343326;28;922;-77
2022/06/11 00:17:39;;;;;;;;;;;;;;;;;;343359;28;984;-77
2022/06/11 00:17:51;;;;;;;;;;;;;;;;;;343333;28;835;-77
2022/06/11 00:18:03;;;;;;;;;;;;;;;;;;342620;28;1667;-77
2022/06/11 00:18:13;;;;;;;;;;;;;;;;;;343261;28;942;-77
2022/06/11 00:18:24;;;;;;;;;;;;;;;;;;343372;28;767;-77
2022/06/11 00:18:35;;;;;;;;;;;;;;;;;;343329;28;977;-77
2022/06/11 00:18:46;;;;;;;;;;;;;;;;;;343042;28;1032;-77
2022/06/11 00:18:57;;;;;;;;;;;;;;;;;;343149;28;937;-76
2022/06/11 00:19:08;;;;;;;;;;;;;;;;;;342583;28;1650;-78
2022/06/11 00:19:21;;;;;;;;;;;;;;;;;;343187;28;803;-77
2022/06/11 00:19:32;;;;;;;;;;;;;;;;;;343174;28;775;-77
2022/06/11 00:19:43;;;;;;;;;;;;;;;;;;343172;28;921;-77
2022/06/11 00:19:54;;;;;;;;;;;;;;;;;;343136;28;874;-78
2022/06/11 00:20:05;;;;;;;;;;;;;;;;;;343182;28;954;-77
2022/06/11 00:20:15;;;;;;;;;;;;;;;;;;342393;28;1741;-78
2022/06/11 00:20:26;;;;;;;;;;;;;;;;;;343319;28;929;-77
2022/06/11 00:20:37;;;;;;;;;;;;;;;;;;343179;28;1200;-77
2022/06/11 00:20:47;;;;;;;;;;;;;;;;;;343258;28;895;-77
2022/06/11 00:20:58;;;;;;;;;;;;;;;;;;343181;28;1033;-77
2022/06/11 00:21:08;;;;;;;;;;;;;;;;;;343330;28;1097;-76
2022/06/11 00:21:19;;;;;;;;;;;;;;;;;;343334;28;992;-77
2022/06/11 00:21:32;;;;;;;;;;;;;;;;;;343323;28;966;-77
2022/06/11 00:21:43;;;;;;;;;;;;;;;;;;343279;28;921;-77
2022/06/11 00:21:53;;;;;;;;;;;;;;;;;;343356;28;850;-77
2022/06/11 00:22:04;;;;;;;;;;;;;;;;;;343308;28;1004;-77
2022/06/11 00:22:16;;;;;;;;;;;;;;;;;;343309;28;906;-78
2022/06/11 00:22:26;;;;;;;;;;;;;;;;;;343251;28;1004;-77
2022/06/11 00:22:37;;;;;;;;;;;;;;;;;;343258;28;949;-77
2022/06/11 00:22:47;;;;;;;;;;;;;;;;;;343257;28;913;-77
2022/06/11 00:22:57;;;;;;;;;;;;;;;;;;343307;28;914;-77
2022/06/11 00:23:07;;;;;;;;;;;;;;;;;;343294;28;1036;-77
2022/06/11 00:23:18;;;;;;;;;;;;;;;;;;343313;28;965;-78
2022/06/11 00:23:28;;;;;;;;;;;;;;;;;;343259;28;914;-76
2022/06/11 00:23:40;;;;;;;;;;;;;;;;;;343305;28;834;-77
2022/06/11 00:23:51;;;;;;;;;;;;;;;;;;343293;28;996;-77
2022/06/11 00:24:01;;;;;;;;;;;;;;;;;;343216;28;993;-77
2022/06/11 00:24:11;;;;;;;;;;;;;;;;;;343276;28;870;-77
2022/06/11 00:24:23;;;;;;;;;;;;;;;;;;343199;28;929;-77
2022/06/11 00:24:33;;;;;;;;;;;;;;;;;;343322;28;775;-77
2022/06/11 00:24:44;;;;;;;;;;;;;;;;;;343305;28;926;-77
2022/06/11 00:24:54;;;;;;;;;;;;;;;;;;343275;28;933;-77
2022/06/11 00:25:04;;;;;;;;;;;;;;;;;;343342;28;894;-77
2022/06/11 00:25:15;;;;;;;;;;;;;;;;;;343254;28;1008;-77
2022/06/11 00:25:25;;;;;;;;;;;;;;;;;;343293;28;973;-77
2022/06/11 00:25:35;;;;;;;;;;;;;;;;;;343292;28;922;-77
2022/06/11 00:25:46;;;;;;;;;;;;;;;;;;343316;28;941;-78
2022/06/11 00:25:56;;;;;;;;;;;;;;;;;;343269;28;1016;-77
2022/06/11 00:26:07;;;;;;;;;;;;;;;;;;343331;28;799;-77
2022/06/11 00:26:17;;;;;;;;;;;;;;;;;;343264;28;878;-77
2022/06/11 00:26:27;;;;;;;;;;;;;;;;;;343267;28;969;-77
2022/06/11 00:26:38;;;;;;;;;;;;;;;;;;343251;28;835;-77
2022/06/11 00:26:49;;;;;;;;;;;;;;;;;;343298;28;918;-77
2022/06/11 00:27:00;;;;;;;;;;;;;;;;;;343297;28;965;-77
2022/06/11 00:27:10;;;;;;;;;;;;;;;;;;343330;28;1137;-77
2022/06/11 00:27:21;;;;;;;;;;;;;;;;;;343299;28;803;-77
2022/06/11 00:27:31;;;;;;;;;;;;;;;;;;343340;28;855;-77
2022/06/11 00:27:41;;;;;;;;;;;;;;;;;;343261;28;980;-77
2022/06/11 00:27:52;;;;;;;;;;;;;;;;;;343345;28;756;-77
2022/06/11 00:28:03;;;;;;;;;;;;;;;;;;343288;28;930;-77
2022/06/11 00:28:13;;;;;;;;;;;;;;;;;;343338;28;843;-78
2022/06/11 00:28:23;;;;;;;;;;;;;;;;;;343296;28;996;-77
2022/06/11 00:28:34;;;;;;;;;;;;;;;;;;343275;28;926;-77
2022/06/11 00:28:44;;;;;;;;;;;;;;;;;;343234;28;929;-77
2022/06/11 00:28:54;;;;;;;;;;;;;;;;;;343327;28;854;-77
2022/06/11 00:29:05;;;;;;;;;;;;;;;;;;343337;28;885;-77
2022/06/11 00:29:16;;;;;;;;;;;;;;;;;;343287;28;914;-78
2022/06/11 00:29:28;;;;;;;;;;;;;;;;;;343262;28;976;-77
2022/06/11 00:29:39;;;;;;;;;;;;;;;;;;343247;28;1910;-77
2022/06/11 00:29:49;;;;;;;;;;;;;;;;;;343339;28;834;-77
2022/06/11 00:30:00;;;;;;;;;;;;;;;;;;343313;28;922;-78
2022/06/11 00:30:11;;;;;;;;;;;;;;;;;;343230;28;930;-77
2022/06/11 00:30:21;;;;;;;;;;;;;;;;;;342391;28;1772;-77
2022/06/11 00:30:32;;;;;;;;;;;;;;;;;;343270;28;930;-77
2022/06/11 00:30:43;;;;;;;;;;;;;;;;;;343215;28;917;-77
2022/06/11 00:30:53;;;;;;;;;;;;;;;;;;343281;28;904;-78
2022/06/11 00:31:04;;;;;;;;;;;;;;;;;;343302;28;997;-77
2022/06/11 00:31:14;;;;;;;;;;;;;;;;;;343226;28;1283;-77
2022/06/11 00:31:24;;;;;;;;;;;;;;;;;;343316;28;969;-77
2022/06/11 00:31:35;;;;;;;;;;;;;;;;;;343255;28;1001;-77
2022/06/11 00:31:45;;;;;;;;;;;;;;;;;;343290;28;898;-77
2022/06/11 00:31:56;;;;;;;;;;;;;;;;;;343343;28;897;-77
2022/06/11 00:32:07;;;;;;;;;;;;;;;;;;343318;28;966;-77
2022/06/11 00:32:17;;;;;;;;;;;;;;;;;;343199;28;934;-77
2022/06/11 00:32:27;;;;;;;;;;;;;;;;;;343258;28;990;-77
2022/06/11 00:32:38;;;;;;;;;;;;;;;;;;343279;28;910;-78
2022/06/11 00:32:48;;;;;;;;;;;;;;;;;;343271;28;925;-77
2022/06/11 00:32:59;;;;;;;;;;;;;;;;;;343261;28;878;-77
2022/06/11 00:33:09;;;;;;;;;;;;;;;;;;343255;28;977;-78
2022/06/11 00:33:20;;;;;;;;;;;;;;;;;;343340;28;917;-77
2022/06/11 00:33:31;;;;;;;;;;;;;;;;;;343289;28;764;-77
2022/06/11 00:33:41;;;;;;;;;;;;;;;;;;343278;28;878;-77
2022/06/11 00:33:51;;;;;;;;;;;;;;;;;;343295;28;783;-77
2022/06/11 00:34:02;;;;;;;;;;;;;;;;;;343274;28;984;-77
2022/06/11 00:34:13;;;;;;;;;;;;;;;;;;343266;28;1129;-77
2022/06/11 00:34:24;;;;;;;;;;;;;;;;;;343283;28;933;-77
2022/06/11 00:34:34;;;;;;;;;;;;;;;;;;343055;28;1480;-77
2022/06/11 00:34:44;;;;;;;;;;;;;;;;;;343168;28;1593;-77
2022/06/11 00:34:58;;;;;;;;;;;;;;;;;;343264;28;985;-76
2022/06/11 00:35:09;;;;;;;;;;;;;;;;;;343222;28;949;-77
2022/06/11 00:35:19;;;;;;;;;;;;;;;;;;343329;28;905;-77
2022/06/11 00:35:30;;;;;;;;;;;;;;;;;;343307;28;799;-77
2022/06/11 00:35:40;;;;;;;;;;;;;;;;;;343286;28;772;-77
2022/06/11 00:35:51;;;;;;;;;;;;;;;;;;343233;28;992;-77
2022/06/11 00:36:01;;;;;;;;;;;;;;;;;;343349;28;831;-77
2022/06/11 00:36:12;;;;;;;;;;;;;;;;;;343295;28;826;-77
2022/06/11 00:36:22;;;;;;;;;;;;;;;;;;343275;28;933;-77
2022/06/11 00:36:33;;;;;;;;;;;;;;;;;;342980;28;1500;-78
2022/06/11 00:36:43;;;;;;;;;;;;;;;;;;343289;28;834;-77
2022/06/11 00:36:54;;;;;;;;;;;;;;;;;;343144;28;964;-77
2022/06/11 00:37:04;;;;;;;;;;;;;;;;;;343282;28;933;-77
2022/06/11 00:37:17;;;;;;;;;;;;;;;;;;343227;28;1045;-77
2022/06/11 00:37:27;;;;;;;;;;;;;;;;;;343308;28;808;-77
2022/06/11 00:37:38;;;;;;;;;;;;;;;;;;343278;28;831;-77
2022/06/11 00:37:48;;;;;;;;;;;;;;;;;;343307;28;1078;-77
2022/06/11 00:37:58;;;;;;;;;;;;;;;;;;343206;28;930;-77
2022/06/11 00:38:10;;;;;;;;;;;;;;;;;;343267;28;926;-77
2022/06/11 00:38:20;;;;;;;;;;;;;;;;;;343300;28;918;-78
2022/06/11 00:38:31;;;;;;;;;;;;;;;;;;343284;28;929;-77
2022/06/11 00:38:42;;;;;;;;;;;;;;;;;;343219;28;946;-77
2022/06/11 00:38:52;;;;;;;;;;;;;;;;;;343263;28;885;-77
2022/06/11 00:39:04;;;;;;;;;;;;;;;;;;343334;28;913;-77
2022/06/11 00:39:16;;;;;;;;;;;;;;;;;;343308;28;980;-77
2022/06/11 00:39:28;;;;;;;;;;;;;;;;;;343249;28;1029;-77
2022/06/11 00:39:38;;;;;;;;;;;;;;;;;;343311;28;942;-77
2022/06/11 00:39:48;;;;;;;;;;;;;;;;;;343249;28;977;-77
2022/06/11 00:39:59;;;;;;;;;;;;;;;;;;343268;28;1045;-77
2022/06/11 00:40:12;;;;;;;;;;;;;;;;;;343172;28;989;-78
2022/06/11 00:40:24;;;;;;;;;;;;;;;;;;342592;28;1677;-79
2022/06/11 00:40:36;;;;;;;;;;;;;;;;;;342270;28;1622;-78
2022/06/11 00:40:48;;;;;;;;;;;;;;;;;;343230;28;780;-77
2022/06/11 00:40:58;;;;;;;;;;;;;;;;;;343227;28;902;-77
2022/06/11 00:41:08;;;;;;;;;;;;;;;;;;343294;28;819;-77
2022/06/11 00:41:20;;;;;;;;;;;;;;;;;;343356;28;819;-77
2022/06/11 00:41:31;;;;;;;;;;;;;;;;;;343234;28;902;-77
2022/06/11 00:41:44;;;;;;;;;;;;;;;;;;343266;28;942;-78
2022/06/11 00:41:56;;;;;;;;;;;;;;;;;;343257;28;1012;-77
2022/06/11 00:42:13;;;;;;;;;;;;;;;;;;343228;28;980;-77
2022/06/11 00:42:28;;;;;;;;;;;;;;;;;;343261;28;1005;-77
2022/06/11 00:42:38;;;;;;;;;;;;;;;;;;343133;28;1095;-77
2022/06/11 00:42:48;;;;;;;;;;;;;;;;;;343205;28;973;-77
2022/06/11 00:42:59;;;;;;;;;;;;;;;;;;343247;28;1000;-77
2022/06/11 00:43:09;;;;;;;;;;;;;;;;;;343235;28;949;-77
2022/06/11 00:43:23;;;;;;;;;;;;;;;;;;343298;28;814;-78
2022/06/11 00:43:37;;;;;;;;;;;;;;;;;;343222;28;997;-77
2022/06/11 00:43:47;;;;;;;;;;;;;;;;;;343293;28;1001;-77
2022/06/11 00:43:58;;;;;;;;;;;;;;;;;;343241;28;977;-77
2022/06/11 00:44:08;;;;;;;;;;;;;;;;;;343218;28;989;-77
2022/06/11 00:44:18;;;;;;;;;;;;;;;;;;343316;28;834;-77
2022/06/11 00:44:29;;;;;;;;;;;;;;;;;;343268;28;1005;-77
2022/06/11 00:44:39;;;;;;;;;;;;;;;;;;343290;28;933;-77
2022/06/11 00:45:10;;;;;;;;;;;;;;;;;;343211;28;1004;-77
2022/06/11 00:45:33;;;;;;;;;;;;;;;;;;343226;28;1352;-77
2022/06/11 00:45:43;;;;;;;;;;;;;;;;;;343248;28;949;-77
2022/06/11 00:46:19;;;;;;;;;;;;;;;;;;343264;28;1009;-77
2022/06/11 00:46:36;;;;;;;;;;;;;;;;;;343144;28;950;-77
2022/06/11 00:46:59;;;;;;;;;;;;;;;;;;343233;28;1013;-77
2022/06/11 00:47:09;;;;;;;;;;;;;;;;;;343303;28;969;-77
2022/06/11 00:47:22;;;;;;;;;;;;;;;;;;343215;28;854;-77
2022/06/11 00:47:33;;;;;;;;;;;;;;;;;;343315;28;929;-77
2022/06/11 00:47:50;;;;;;;;;;;;;;;;;;343262;28;914;-77
2022/06/11 00:48:06;;;;;;;;;;;;;;;;;;343213;28;807;-77
2022/06/11 00:48:16;;;;;;;;;;;;;;;;;;343161;28;1472;-77
2022/06/11 00:48:32;;;;;;;;;;;;;;;;;;343274;28;941;-77
2022/06/11 00:48:42;;;;;;;;;;;;;;;;;;343210;28;933;-77
2022/06/11 00:48:53;;;;;;;;;;;;;;;;;;343330;28;997;-77
2022/06/11 00:49:05;;;;;;;;;;;;;;;;;;343290;28;897;-77
2022/06/11 00:49:21;;;;;;;;;;;;;;;;;;343310;28;804;-77
2022/06/11 00:49:48;;;;;;;;;;;;;;;;;;343133;28;1138;-77
2022/06/11 00:49:58;;;;;;;;;;;;;;;;;;343243;28;986;-77
2022/06/11 00:50:22;;;;;;;;;;;;;;;;;;343208;28;1080;-77
2022/06/11 00:50:37;;;;;;;;;;;;;;;;;;343274;28;1035;-77
2022/06/11 00:50:49;;;;;;;;;;;;;;;;;;343085;28;1468;-77
2022/06/11 00:51:05;;;;;;;;;;;;;;;;;;343295;28;926;-77
2022/06/11 00:51:17;;;;;;;;;;;;;;;;;;343184;28;961;-78
2022/06/11 00:51:28;;;;;;;;;;;;;;;;;;343210;28;894;-78
2022/06/11 00:51:38;;;;;;;;;;;;;;;;;;343301;28;976;-78
2022/06/11 00:51:53;;;;;;;;;;;;;;;;;;343269;28;996;-78
2022/06/11 00:52:09;;;;;;;;;;;;;;;;;;343264;28;1070;-77
2022/06/11 00:52:29;;;;;;;;;;;;;;;;;;343295;28;956;-77
2022/06/11 00:52:42;;;;;;;;;;;;;;;;;;343249;28;1006;-77
2022/06/11 00:52:53;;;;;;;;;;;;;;;;;;343236;28;989;-77
2022/06/11 00:53:10;;;;;;;;;;;;;;;;;;343277;28;779;-77
2022/06/11 00:53:38;;;;;;;;;;;;;;;;;;343234;28;977;-77
2022/06/11 00:53:51;;;;;;;;;;;;;;;;;;343306;28;921;-77
2022/06/11 00:54:04;;;;;;;;;;;;;;;;;;343065;28;1217;-77
2022/06/11 00:54:17;;;;;;;;;;;;;;;;;;343040;28;1036;-77
2022/06/11 00:54:27;;;;;;;;;;;;;;;;;;343195;28;1005;-77
2022/06/11 00:54:39;;;;;;;;;;;;;;;;;;343266;28;980;-77
2022/06/11 00:54:56;;;;;;;;;;;;;;;;;;343261;28;1021;-77
2022/06/11 00:55:10;;;;;;;;;;;;;;;;;;343227;28;937;-77
2022/06/11 00:55:24;;;;;;;;;;;;;;;;;;343256;28;1127;-78
2022/06/11 00:55:36;;;;;;;;;;;;;;;;;;343228;28;973;-78
2022/06/11 00:55:48;;;;;;;;;;;;;;;;;;343184;28;980;-77
2022/06/11 00:55:58;;;;;;;;;;;;;;;;;;343249;28;906;-77
2022/06/11 00:56:16;;;;;;;;;;;;;;;;;;343253;28;827;-77
2022/06/11 00:56:35;;;;;;;;;;;;;;;;;;343229;28;934;-77
2022/06/11 00:56:47;;;;;;;;;;;;;;;;;;343300;28;826;-77
2022/06/11 00:56:58;;;;;;;;;;;;;;;;;;342999;28;1698;-77
2022/06/11 00:57:08;;;;;;;;;;;;;;;;;;343004;28;1393;-77
2022/06/11 00:57:19;;;;;;;;;;;;;;;;;;343148;28;1566;-78
2022/06/11 00:57:31;;;;;;;;;;;;;;;;;;343209;28;1104;-78
2022/06/11 00:57:44;;;;;;;;;;;;;;;;;;343206;28;813;-77
2022/06/11 00:58:06;;;;;;;;;;;;;;;;;;343265;28;969;-77
2022/06/11 00:58:19;;;;;;;;;;;;;;;;;;343205;28;825;-77
2022/06/11 00:58:33;;;;;;;;;;;;;;;;;;343269;28;934;-77
2022/06/11 00:58:45;;;;;;;;;;;;;;;;;;343263;28;1005;-77
2022/06/11 00:58:59;;;;;;;;;;;;;;;;;;343207;28;925;-77
2022/06/11 00:59:11;;;;;;;;;;;;;;;;;;343243;28;949;-77
2022/06/11 00:59:25;;;;;;;;;;;;;;;;;;343305;28;938;-77
2022/06/11 00:59:38;;;;;;;;;;;;;;;;;;343250;28;909;-77
2022/06/11 00:59:53;;;;;;;;;;;;;;;;;;343223;28;929;-77
2022/06/11 01:00:15;;;;;;;;;;;;;;;;;;343277;28;810;-77
2022/06/11 01:00:27;;;;;;;;;;;;;;;;;;343266;28;829;-77
2022/06/11 01:00:41;;;;;;;;;;;;;;;;;;342505;28;1505;-77
2022/06/11 01:00:57;;;;;;;;;;;;;;;;;;341900;29;984;-77
2022/06/11 01:01:08;;;;;;;;;;;;;;;;;;341895;29;1115;-77
2022/06/11 01:01:19;;;;;;;;;;;;;;;;;;341885;29;933;-77
2022/06/11 01:01:30;;;;;;;;;;;;;;;;;;341870;29;905;-77
2022/06/11 01:01:41;;;;;;;;;;;;;;;;;;341948;29;850;-77
2022/06/11 01:01:51;;;;;;;;;;;;;;;;;;341895;29;917;-77
2022/06/11 01:02:02;;;;;;;;;;;;;;;;;;341900;29;854;-77
2022/06/11 01:02:12;;;;;;;;;;;;;;;;;;341913;29;973;-77
2022/06/11 01:02:22;;;;;;;;;;;;;;;;;;341882;29;937;-77
2022/06/11 01:02:33;;;;;;;;;;;;;;;;;;341924;29;992;-77
2022/06/11 01:02:44;;;;;;;;;;;;;;;;;;341917;28;902;-77
2022/06/11 01:02:55;;;;;;;;;;;;;;;;;;341917;29;925;-77
2022/06/11 01:03:06;;;;;;;;;;;;;;;;;;341963;29;1048;-77
2022/06/11 01:03:18;;;;;;;;;;;;;;;;;;341919;28;857;-76
2022/06/11 01:03:31;;;;;;;;;;;;;;;;;;341913;29;897;-77
2022/06/11 01:03:42;;;;;;;;;;;;;;;;;;341939;29;926;-77
2022/06/11 01:03:53;;;;;;;;;;;;;;;;;;341875;29;941;-77
2022/06/11 01:04:24;;;;;;;;;;;;;;;;;;341887;29;917;-77
2022/06/11 01:04:37;;;;;;;;;;;;;;;;;;341771;28;1719;-77
2022/06/11 01:04:50;;;;;;;;;;;;;;;;;;341932;29;914;-77
2022/06/11 01:05:02;;;;;;;;;;;;;;;;;;341938;29;949;-77
2022/06/11 01:05:18;;;;;;;;;;;;;;;;;;341905;29;976;-77
2022/06/11 01:05:31;;;;;;;;;;;;;;;;;;341855;28;972;-78
2022/06/11 01:05:43;;;;;;;;;;;;;;;;;;341933;29;881;-77
2022/06/11 01:06:04;;;;;;;;;;;;;;;;;;341826;29;994;-77
2022/06/11 01:06:14;;;;;;;;;;;;;;;;;;341870;29;925;-77
2022/06/11 01:06:45;;;;;;;;;;;;;;;;;;341873;29;910;-77
2022/06/11 01:06:59;;;;;;;;;;;;;;;;;;339031;29;1104;-76
2022/06/11 01:07:17;;;;;;;;;;;;;;;;;;339145;29;988;-77
2022/06/11 01:07:42;;;;;;;;;;;;;;;;;;341893;29;1040;-77
2022/06/11 01:07:56;;;;;;;;;;;;;;;;;;341917;29;874;-77
2022/06/11 01:08:09;;;;;;;;;;;;;;;;;;341903;29;1086;-77
2022/06/11 01:08:26;;;;;;;;;;;;;;;;;;341909;29;910;-77
2022/06/11 01:08:44;;;;;;;;;;;;;;;;;;341907;29;842;-77
2022/06/11 01:08:59;;;;;;;;;;;;;;;;;;341933;29;914;-77
2022/06/11 01:09:12;;;;;;;;;;;;;;;;;;341780;29;1091;-77
2022/06/11 01:09:44;;;;;;;;;;;;;;;;;;341882;29;1108;-77
2022/06/11 01:10:09;;;;;;;;;;;;;;;;;;341597;28;1797;-78
2022/06/11 01:10:20;;;;;;;;;;;;;;;;;;343004;28;835;-77
2022/06/11 01:10:44;;;;;;;;;;;;;;;;;;343234;28;925;-77
2022/06/11 01:11:13;;;;;;;;;;;;;;;;;;343194;28;1169;-77
2022/06/11 01:11:29;;;;;;;;;;;;;;;;;;343225;28;784;-76
2022/06/11 01:11:54;;;;;;;;;;;;;;;;;;343267;28;913;-77
2022/06/11 01:12:06;;;;;;;;;;;;;;;;;;343213;28;1017;-77
2022/06/11 01:12:27;;;;;;;;;;;;;;;;;;343219;28;882;-76
2022/06/11 01:12:48;;;;;;;;;;;;;;;;;;343197;28;941;-77
2022/06/11 01:13:10;;;;;;;;;;;;;;;;;;343266;28;929;-76
2022/06/11 01:13:31;;;;;;;;;;;;;;;;;;343241;28;913;-77
2022/06/11 01:14:03;;;;;;;;;;;;;;;;;;343208;28;1036;-77
2022/06/11 01:14:19;;;;;;;;;;;;;;;;;;343240;28;1040;-77
2022/06/11 01:14:35;;;;;;;;;;;;;;;;;;343250;28;953;-76
2022/06/11 01:14:52;;;;;;;;;;;;;;;;;;343208;28;865;-77
2022/06/11 01:15:08;;;;;;;;;;;;;;;;;;343254;28;786;-77
2022/06/11 01:15:24;;;;;;;;;;;;;;;;;;343232;28;922;-76
2022/06/11 01:15:36;;;;;;;;;;;;;;;;;;343218;28;1020;-76
2022/06/11 01:15:52;;;;;;;;;;;;;;;;;;343234;28;1014;-77
2022/06/11 01:16:09;;;;;;;;;;;;;;;;;;343257;28;921;-77
2022/06/11 01:16:28;;;;;;;;;;;;;;;;;;343154;28;980;-77
2022/06/11 01:16:45;;;;;;;;;;;;;;;;;;343194;28;996;-76
2022/06/11 01:17:01;;;;;;;;;;;;;;;;;;343241;28;953;-77
2022/06/11 01:17:15;;;;;;;;;;;;;;;;;;343241;28;1004;-77
2022/06/11 01:17:36;;;;;;;;;;;;;;;;;;343262;28;820;-77
2022/06/11 01:17:57;;;;;;;;;;;;;;;;;;343253;28;869;-77
2022/06/11 01:18:16;;;;;;;;;;;;;;;;;;343201;28;945;-77
2022/06/11 01:18:27;;;;;;;;;;;;;;;;;;343217;28;858;-77
2022/06/11 01:18:41;;;;;;;;;;;;;;;;;;343215;28;925;-77
2022/06/11 01:18:54;;;;;;;;;;;;;;;;;;343236;28;851;-77
2022/06/11 01:19:13;;;;;;;;;;;;;;;;;;343266;28;842;-77
2022/06/11 01:19:42;;;;;;;;;;;;;;;;;;343244;28;906;-77
2022/06/11 01:19:52;;;;;;;;;;;;;;;;;;343192;28;1067;-77
2022/06/11 01:20:03;;;;;;;;;;;;;;;;;;343250;28;905;-77
2022/06/11 01:20:22;;;;;;;;;;;;;;;;;;342594;28;1693;-77
2022/06/11 01:20:44;;;;;;;;;;;;;;;;;;343153;28;846;-77
2022/06/11 01:21:14;;;;;;;;;;;;;;;;;;343222;28;904;-77
2022/06/11 01:21:31;;;;;;;;;;;;;;;;;;342672;28;1078;-77
2022/06/11 01:21:54;;;;;;;;;;;;;;;;;;343081;28;1007;-77
2022/06/11 01:22:13;;;;;;;;;;;;;;;;;;343237;28;1091;-76
2022/06/11 01:22:42;;;;;;;;;;;;;;;;;;343237;28;842;-77
2022/06/11 01:22:58;;;;;;;;;;;;;;;;;;343132;28;981;-77
2022/06/11 01:23:11;;;;;;;;;;;;;;;;;;343244;28;933;-77
2022/06/11 01:23:31;;;;;;;;;;;;;;;;;;343209;28;984;-77
2022/06/11 01:23:53;;;;;;;;;;;;;;;;;;343258;28;933;-77
2022/06/11 01:24:14;;;;;;;;;;;;;;;;;;343242;28;964;-77
2022/06/11 01:24:34;;;;;;;;;;;;;;;;;;343210;28;898;-77
2022/06/11 01:25:03;;;;;;;;;;;;;;;;;;343208;28;1000;-77
2022/06/11 01:25:32;;;;;;;;;;;;;;;;;;343176;28;996;-76
2022/06/11 01:25:42;;;;;;;;;;;;;;;;;;343277;28;926;-77
2022/06/11 01:26:12;;;;;;;;;;;;;;;;;;343201;28;973;-77
2022/06/11 01:26:42;;;;;;;;;;;;;;;;;;343279;28;811;-77
2022/06/11 01:27:02;;;;;;;;;;;;;;;;;;343095;28;973;-77
2022/06/11 01:27:34;;;;;;;;;;;;;;;;;;342755;28;1523;-77
2022/06/11 01:27:54;;;;;;;;;;;;;;;;;;343229;28;961;-77
2022/06/11 01:28:23;;;;;;;;;;;;;;;;;;343269;28;940;-77
2022/06/11 01:28:59;;;;;;;;;;;;;;;;;;343206;28;949;-77
2022/06/11 01:29:26;;;;;;;;;;;;;;;;;;343209;28;962;-77
2022/06/11 01:29:39;;;;;;;;;;;;;;;;;;343201;28;985;-77
2022/06/11 01:30:12;;;;;;;;;;;;;;;;;;343145;28;1970;-77
2022/06/11 01:30:31;;;;;;;;;;;;;;;;;;342521;28;1764;-77
2022/06/11 01:30:44;;;;;;;;;;;;;;;;;;341838;29;917;-77
2022/06/11 01:31:00;;;;;;;;;;;;;;;;;;341852;29;933;-77
2022/06/11 01:31:17;;;;;;;;;;;;;;;;;;341883;29;897;-77
2022/06/11 01:31:29;;;;;;;;;;;;;;;;;;341859;29;985;-77
2022/06/11 01:31:45;;;;;;;;;;;;;;;;;;341905;29;930;-77
2022/06/11 01:31:57;;;;;;;;;;;;;;;;;;341837;29;946;-77
2022/06/11 01:32:15;;;;;;;;;;;;;;;;;;341892;29;950;-77
2022/06/11 01:32:40;;;;;;;;;;;;;;;;;;341844;29;1024;-77
2022/06/11 01:32:55;;;;;;;;;;;;;;;;;;341935;29;830;-77
2022/06/11 01:33:13;;;;;;;;;;;;;;;;;;341867;29;934;-77
2022/06/11 01:33:36;;;;;;;;;;;;;;;;;;341883;29;830;-77
2022/06/11 01:33:49;;;;;;;;;;;;;;;;;;341926;29;980;-77
2022/06/11 01:33:59;;;;;;;;;;;;;;;;;;341843;29;918;-77
2022/06/11 01:34:22;;;;;;;;;;;;;;;;;;341826;29;934;-77
2022/06/11 01:34:35;;;;;;;;;;;;;;;;;;341888;29;906;-77
2022/06/11 01:35:09;;;;;;;;;;;;;;;;;;341896;29;902;-77
2022/06/11 01:35:22;;;;;;;;;;;;;;;;;;341866;29;882;-77
2022/06/11 01:35:41;;;;;;;;;;;;;;;;;;341864;29;1000;-77
2022/06/11 01:36:10;;;;;;;;;;;;;;;;;;341845;29;915;-77
2022/06/11 01:36:26;;;;;;;;;;;;;;;;;;341869;29;989;-77
2022/06/11 01:36:39;;;;;;;;;;;;;;;;;;341823;29;1072;-77
2022/06/11 01:36:52;;;;;;;;;;;;;;;;;;341809;29;930;-77